sensor_id;sensor_type;location;lat;lon;timestamp;pressure;altitude;pressure_sealevel;temperature
11424;BMP180;5768;51.476;7.210;2024-02-14T00:00:55;100179.00;;;12.20
11424;BMP180;5768;51.476;7.210;2024-02-14T00:06:00;100185.00;;;12.20
11424;BMP180;5768;51.476;7.210;2024-02-14T00:11:03;100172.00;;;12.20
11424;BMP180;5768;51.476;7.210;2024-02-14T00:16:08;100165.00;;;12.30
11424;BMP180;5768;51.476;7.210;2024-02-14T00:21:10;100171.00;;;12.30
11424;BMP180;5768;51.476;7.210;2024-02-14T00:26:12;100160.00;;;12.30
11424;BMP180;5768;51.476;7.210;2024-02-14T00:31:16;100161.00;;;12.20
11424;BMP180;5768;51.476;7.210;2024-02-14T00:36:18;100152.00;;;12.20
11424;BMP180;5768;51.476;7.210;2024-02-14T00:41:21;100159.00;;;12.10
11424;BMP180;5768;51.476;7.210;2024-02-14T00:46:25;100147.00;;;12.10
11424;BMP180;5768;51.476;7.210;2024-02-14T00:51:28;100153.00;;;12.10
11424;BMP180;5768;51.476;7.210;2024-02-14T00:56:30;100144.00;;;12.10
11424;BMP180;5768;51.476;7.210;2024-02-14T01:01:34;100142.00;;;12.00
11424;BMP180;5768;51.476;7.210;2024-02-14T01:06:36;100148.00;;;11.90
11424;BMP180;5768;51.476;7.210;2024-02-14T01:11:38;100135.00;;;11.80
11424;BMP180;5768;51.476;7.210;2024-02-14T01:16:45;100128.00;;;11.80
11424;BMP180;5768;51.476;7.210;2024-02-14T01:21:47;100112.00;;;11.80
11424;BMP180;5768;51.476;7.210;2024-02-14T01:26:50;100129.00;;;11.80
11424;BMP180;5768;51.476;7.210;2024-02-14T01:31:53;100111.00;;;11.80
11424;BMP180;5768;51.476;7.210;2024-02-14T01:36:56;100102.00;;;11.80
11424;BMP180;5768;51.476;7.210;2024-02-14T01:41:58;100103.00;;;11.80
11424;BMP180;5768;51.476;7.210;2024-02-14T01:47:02;100101.00;;;11.80
11424;BMP180;5768;51.476;7.210;2024-02-14T01:52:07;100100.00;;;11.80
11424;BMP180;5768;51.476;7.210;2024-02-14T01:57:10;100099.00;;;11.90
11424;BMP180;5768;51.476;7.210;2024-02-14T02:02:14;100106.00;;;12.00
11424;BMP180;5768;51.476;7.210;2024-02-14T02:07:17;100086.00;;;11.90
11424;BMP180;5768;51.476;7.210;2024-02-14T02:12:20;100094.00;;;12.00
11424;BMP180;5768;51.476;7.210;2024-02-14T02:17:26;100091.00;;;11.90
11424;BMP180;5768;51.476;7.210;2024-02-14T02:22:29;100099.00;;;11.90
11424;BMP180;5768;51.476;7.210;2024-02-14T02:27:34;100100.00;;;11.90
11424;BMP180;5768;51.476;7.210;2024-02-14T02:32:38;100098.00;;;11.80
11424;BMP180;5768;51.476;7.210;2024-02-14T02:37:40;100091.00;;;11.80
11424;BMP180;5768;51.476;7.210;2024-02-14T02:42:44;100090.00;;;11.80
11424;BMP180;5768;51.476;7.210;2024-02-14T02:47:47;100090.00;;;11.90
11424;BMP180;5768;51.476;7.210;2024-02-14T02:52:52;100116.00;;;11.90
11424;BMP180;5768;51.476;7.210;2024-02-14T02:57:57;100099.00;;;12.00
11424;BMP180;5768;51.476;7.210;2024-02-14T03:02:59;100090.00;;;12.10
11424;BMP180;5768;51.476;7.210;2024-02-14T03:08:04;100091.00;;;12.10
11424;BMP180;5768;51.476;7.210;2024-02-14T03:13:09;100086.00;;;12.10
11424;BMP180;5768;51.476;7.210;2024-02-14T03:18:12;100089.00;;;12.20
11424;BMP180;5768;51.476;7.210;2024-02-14T03:23:14;100084.00;;;12.30
11424;BMP180;5768;51.476;7.210;2024-02-14T03:28:18;100076.00;;;12.20
11424;BMP180;5768;51.476;7.210;2024-02-14T03:33:20;100085.00;;;12.20
11424;BMP180;5768;51.476;7.210;2024-02-14T03:38:26;100077.00;;;12.30
11424;BMP180;5768;51.476;7.210;2024-02-14T03:43:30;100092.00;;;12.30
11424;BMP180;5768;51.476;7.210;2024-02-14T03:48:33;100089.00;;;12.20
11424;BMP180;5768;51.476;7.210;2024-02-14T03:53:35;100089.00;;;12.10
11424;BMP180;5768;51.476;7.210;2024-02-14T03:58:40;100093.00;;;12.10
11424;BMP180;5768;51.476;7.210;2024-02-14T04:03:42;100083.00;;;12.10
11424;BMP180;5768;51.476;7.210;2024-02-14T04:08:44;100087.00;;;12.20
11424;BMP180;5768;51.476;7.210;2024-02-14T04:13:48;100096.00;;;12.20
11424;BMP180;5768;51.476;7.210;2024-02-14T04:18:50;100101.00;;;12.20
11424;BMP180;5768;51.476;7.210;2024-02-14T04:23:54;100104.00;;;12.30
11424;BMP180;5768;51.476;7.210;2024-02-14T04:28:57;100108.00;;;12.30
11424;BMP180;5768;51.476;7.210;2024-02-14T04:34:00;100107.00;;;12.30
11424;BMP180;5768;51.476;7.210;2024-02-14T04:39:02;100111.00;;;12.30
11424;BMP180;5768;51.476;7.210;2024-02-14T04:44:06;100113.00;;;12.30
11424;BMP180;5768;51.476;7.210;2024-02-14T04:49:08;100114.00;;;12.30
11424;BMP180;5768;51.476;7.210;2024-02-14T04:54:11;100114.00;;;12.30
11424;BMP180;5768;51.476;7.210;2024-02-14T04:59:15;100125.00;;;12.30
11424;BMP180;5768;51.476;7.210;2024-02-14T05:04:18;100126.00;;;12.30
11424;BMP180;5768;51.476;7.210;2024-02-14T05:09:23;100121.00;;;12.30
11424;BMP180;5768;51.476;7.210;2024-02-14T05:14:27;100130.00;;;12.40
11424;BMP180;5768;51.476;7.210;2024-02-14T05:19:32;100126.00;;;12.50
11424;BMP180;5768;51.476;7.210;2024-02-14T05:24:34;100132.00;;;12.60
11424;BMP180;5768;51.476;7.210;2024-02-14T05:29:39;100136.00;;;12.60
11424;BMP180;5768;51.476;7.210;2024-02-14T05:34:41;100133.00;;;12.60
11424;BMP180;5768;51.476;7.210;2024-02-14T05:39:44;100142.00;;;12.60
11424;BMP180;5768;51.476;7.210;2024-02-14T05:44:48;100141.00;;;12.60
11424;BMP180;5768;51.476;7.210;2024-02-14T05:49:50;100162.00;;;12.60
11424;BMP180;5768;51.476;7.210;2024-02-14T05:54:53;100147.00;;;12.60
11424;BMP180;5768;51.476;7.210;2024-02-14T05:59:57;100152.00;;;12.60
11424;BMP180;5768;51.476;7.210;2024-02-14T06:04:59;100150.00;;;12.50
11424;BMP180;5768;51.476;7.210;2024-02-14T06:10:01;100144.00;;;12.60
11424;BMP180;5768;51.476;7.210;2024-02-14T06:15:07;100149.00;;;12.50
11424;BMP180;5768;51.476;7.210;2024-02-14T06:20:10;100166.00;;;12.60
11424;BMP180;5768;51.476;7.210;2024-02-14T06:25:13;100156.00;;;12.60
11424;BMP180;5768;51.476;7.210;2024-02-14T06:30:18;100177.00;;;12.70
11424;BMP180;5768;51.476;7.210;2024-02-14T06:35:20;100180.00;;;12.70
11424;BMP180;5768;51.476;7.210;2024-02-14T06:40:23;100190.00;;;12.70
11424;BMP180;5768;51.476;7.210;2024-02-14T06:45:28;100198.00;;;12.70
11424;BMP180;5768;51.476;7.210;2024-02-14T06:50:30;100189.00;;;12.70
11424;BMP180;5768;51.476;7.210;2024-02-14T06:55:35;100197.00;;;12.70
11424;BMP180;5768;51.476;7.210;2024-02-14T07:00:39;100195.00;;;12.70
11424;BMP180;5768;51.476;7.210;2024-02-14T07:05:43;100200.00;;;12.80
11424;BMP180;5768;51.476;7.210;2024-02-14T07:10:47;100210.00;;;12.80
11424;BMP180;5768;51.476;7.210;2024-02-14T07:15:52;100220.00;;;12.90
11424;BMP180;5768;51.476;7.210;2024-02-14T07:20:59;100216.00;;;12.90
11424;BMP180;5768;51.476;7.210;2024-02-14T07:26:06;100222.00;;;13.00
11424;BMP180;5768;51.476;7.210;2024-02-14T07:31:14;100230.00;;;13.00
11424;BMP180;5768;51.476;7.210;2024-02-14T07:36:19;100237.00;;;13.00
11424;BMP180;5768;51.476;7.210;2024-02-14T07:41:22;100216.00;;;13.10
11424;BMP180;5768;51.476;7.210;2024-02-14T07:46:27;100230.00;;;13.20
11424;BMP180;5768;51.476;7.210;2024-02-14T07:51:32;100257.00;;;13.20
11424;BMP180;5768;51.476;7.210;2024-02-14T07:56:38;100230.00;;;13.30
11424;BMP180;5768;51.476;7.210;2024-02-14T08:01:42;100251.00;;;13.20
11424;BMP180;5768;51.476;7.210;2024-02-14T08:06:45;100253.00;;;13.10
11424;BMP180;5768;51.476;7.210;2024-02-14T08:11:49;100241.00;;;13.10
11424;BMP180;5768;51.476;7.210;2024-02-14T08:16:55;100244.00;;;13.20
11424;BMP180;5768;51.476;7.210;2024-02-14T08:21:58;100243.00;;;13.30
11424;BMP180;5768;51.476;7.210;2024-02-14T08:27:06;100241.00;;;13.30
11424;BMP180;5768;51.476;7.210;2024-02-14T08:32:09;100253.00;;;13.50
11424;BMP180;5768;51.476;7.210;2024-02-14T08:37:12;100247.00;;;13.70
11424;BMP180;5768;51.476;7.210;2024-02-14T08:42:14;100261.00;;;13.70
11424;BMP180;5768;51.476;7.210;2024-02-14T08:47:21;100264.00;;;13.70
11424;BMP180;5768;51.476;7.210;2024-02-14T08:52:35;100262.00;;;13.90
11424;BMP180;5768;51.476;7.210;2024-02-14T08:57:38;100272.00;;;14.00
11424;BMP180;5768;51.476;7.210;2024-02-14T09:02:46;100273.00;;;13.90
11424;BMP180;5768;51.476;7.210;2024-02-14T09:07:49;100279.00;;;13.90
11424;BMP180;5768;51.476;7.210;2024-02-14T09:12:52;100280.00;;;13.90
11424;BMP180;5768;51.476;7.210;2024-02-14T09:18:06;100271.00;;;14.00
11424;BMP180;5768;51.476;7.210;2024-02-14T09:23:12;100283.00;;;14.00
11424;BMP180;5768;51.476;7.210;2024-02-14T09:28:23;100288.00;;;14.10
11424;BMP180;5768;51.476;7.210;2024-02-14T09:33:27;100297.00;;;14.10
11424;BMP180;5768;51.476;7.210;2024-02-14T09:38:30;100296.00;;;14.10
11424;BMP180;5768;51.476;7.210;2024-02-14T09:43:43;100307.00;;;13.90
11424;BMP180;5768;51.476;7.210;2024-02-14T09:48:49;100302.00;;;13.70
11424;BMP180;5768;51.476;7.210;2024-02-14T09:53:58;100288.00;;;13.60
11424;BMP180;5768;51.476;7.210;2024-02-14T09:59:05;100305.00;;;13.60
11424;BMP180;5768;51.476;7.210;2024-02-14T10:04:12;100321.00;;;13.70
11424;BMP180;5768;51.476;7.210;2024-02-14T10:09:20;100312.00;;;14.00
11424;BMP180;5768;51.476;7.210;2024-02-14T10:14:29;100306.00;;;14.30
11424;BMP180;5768;51.476;7.210;2024-02-14T10:19:36;100307.00;;;14.40
11424;BMP180;5768;51.476;7.210;2024-02-14T10:24:39;100312.00;;;14.50
11424;BMP180;5768;51.476;7.210;2024-02-14T10:29:45;100311.00;;;14.60
11424;BMP180;5768;51.476;7.210;2024-02-14T10:35:20;100334.00;;;14.60
11424;BMP180;5768;51.476;7.210;2024-02-14T10:40:37;100308.00;;;14.80
11424;BMP180;5768;51.476;7.210;2024-02-14T10:45:44;100311.00;;;14.80
11424;BMP180;5768;51.476;7.210;2024-02-14T10:50:50;100335.00;;;14.90
11424;BMP180;5768;51.476;7.210;2024-02-14T10:55:57;100330.00;;;14.90
11424;BMP180;5768;51.476;7.210;2024-02-14T11:01:01;100334.00;;;14.90
11424;BMP180;5768;51.476;7.210;2024-02-14T11:06:05;100319.00;;;15.00
11424;BMP180;5768;51.476;7.210;2024-02-14T11:11:08;100333.00;;;15.10
11424;BMP180;5768;51.476;7.210;2024-02-14T11:16:10;100333.00;;;15.00
11424;BMP180;5768;51.476;7.210;2024-02-14T11:21:17;100335.00;;;15.10
11424;BMP180;5768;51.476;7.210;2024-02-14T11:26:20;100336.00;;;15.10
11424;BMP180;5768;51.476;7.210;2024-02-14T11:31:33;100331.00;;;15.00
11424;BMP180;5768;51.476;7.210;2024-02-14T11:36:42;100332.00;;;15.00
11424;BMP180;5768;51.476;7.210;2024-02-14T11:41:47;100334.00;;;15.00
11424;BMP180;5768;51.476;7.210;2024-02-14T11:46:50;100349.00;;;14.90
11424;BMP180;5768;51.476;7.210;2024-02-14T11:51:57;100337.00;;;15.00
11424;BMP180;5768;51.476;7.210;2024-02-14T11:57:02;100320.00;;;15.00
11424;BMP180;5768;51.476;7.210;2024-02-14T12:02:05;100315.00;;;15.10
11424;BMP180;5768;51.476;7.210;2024-02-14T12:07:09;100339.00;;;15.30
11424;BMP180;5768;51.476;7.210;2024-02-14T12:12:15;100303.00;;;15.30
11424;BMP180;5768;51.476;7.210;2024-02-14T12:17:17;100317.00;;;15.20
11424;BMP180;5768;51.476;7.210;2024-02-14T12:22:23;100320.00;;;15.30
11424;BMP180;5768;51.476;7.210;2024-02-14T12:27:26;100310.00;;;15.30
11424;BMP180;5768;51.476;7.210;2024-02-14T12:32:29;100335.00;;;15.20
11424;BMP180;5768;51.476;7.210;2024-02-14T12:37:33;100306.00;;;15.10
11424;BMP180;5768;51.476;7.210;2024-02-14T12:42:36;100308.00;;;15.10
11424;BMP180;5768;51.476;7.210;2024-02-14T12:47:41;100308.00;;;15.20
11424;BMP180;5768;51.476;7.210;2024-02-14T12:52:48;100322.00;;;15.20
11424;BMP180;5768;51.476;7.210;2024-02-14T12:57:51;100312.00;;;15.30
11424;BMP180;5768;51.476;7.210;2024-02-14T13:02:54;100324.00;;;15.20
11424;BMP180;5768;51.476;7.210;2024-02-14T13:07:58;100310.00;;;15.30
11424;BMP180;5768;51.476;7.210;2024-02-14T13:13:01;100300.00;;;15.50
11424;BMP180;5768;51.476;7.210;2024-02-14T13:18:04;100296.00;;;15.50
11424;BMP180;5768;51.476;7.210;2024-02-14T13:23:11;100294.00;;;15.50
11424;BMP180;5768;51.476;7.210;2024-02-14T13:28:15;100287.00;;;15.40
11424;BMP180;5768;51.476;7.210;2024-02-14T13:33:17;100307.00;;;15.40
11424;BMP180;5768;51.476;7.210;2024-02-14T13:38:21;100317.00;;;15.40
11424;BMP180;5768;51.476;7.210;2024-02-14T13:43:23;100305.00;;;15.50
11424;BMP180;5768;51.476;7.210;2024-02-14T13:48:26;100307.00;;;15.50
11424;BMP180;5768;51.476;7.210;2024-02-14T13:53:31;100294.00;;;15.30
11424;BMP180;5768;51.476;7.210;2024-02-14T13:58:35;100299.00;;;15.40
11424;BMP180;5768;51.476;7.210;2024-02-14T14:03:39;100296.00;;;15.40
11424;BMP180;5768;51.476;7.210;2024-02-14T14:08:43;100296.00;;;15.40
11424;BMP180;5768;51.476;7.210;2024-02-14T14:13:46;100295.00;;;15.40
11424;BMP180;5768;51.476;7.210;2024-02-14T14:18:49;100284.00;;;15.40
11424;BMP180;5768;51.476;7.210;2024-02-14T14:23:52;100287.00;;;15.50
11424;BMP180;5768;51.476;7.210;2024-02-14T14:28:55;100289.00;;;15.50
11424;BMP180;5768;51.476;7.210;2024-02-14T14:34:00;100281.00;;;15.50
11424;BMP180;5768;51.476;7.210;2024-02-14T14:39:04;100290.00;;;15.50
11424;BMP180;5768;51.476;7.210;2024-02-14T14:44:07;100295.00;;;15.50
11424;BMP180;5768;51.476;7.210;2024-02-14T14:49:12;100299.00;;;15.40
11424;BMP180;5768;51.476;7.210;2024-02-14T14:54:16;100302.00;;;15.40
11424;BMP180;5768;51.476;7.210;2024-02-14T14:59:18;100293.00;;;15.30
11424;BMP180;5768;51.476;7.210;2024-02-14T15:04:21;100283.00;;;15.30
11424;BMP180;5768;51.476;7.210;2024-02-14T15:09:27;100289.00;;;15.30
11424;BMP180;5768;51.476;7.210;2024-02-14T15:14:29;100285.00;;;15.30
11424;BMP180;5768;51.476;7.210;2024-02-14T15:19:32;100272.00;;;15.30
11424;BMP180;5768;51.476;7.210;2024-02-14T15:24:37;100274.00;;;15.20
11424;BMP180;5768;51.476;7.210;2024-02-14T15:29:42;100285.00;;;15.20
11424;BMP180;5768;51.476;7.210;2024-02-14T15:35:02;100280.00;;;15.10
11424;BMP180;5768;51.476;7.210;2024-02-14T15:40:08;100281.00;;;15.00
11424;BMP180;5768;51.476;7.210;2024-02-14T15:45:10;100279.00;;;14.90
11424;BMP180;5768;51.476;7.210;2024-02-14T15:50:16;100290.00;;;14.90
11424;BMP180;5768;51.476;7.210;2024-02-14T15:55:21;100299.00;;;14.80
11424;BMP180;5768;51.476;7.210;2024-02-14T16:00:24;100284.00;;;14.80
11424;BMP180;5768;51.476;7.210;2024-02-14T16:05:29;100294.00;;;14.80
11424;BMP180;5768;51.476;7.210;2024-02-14T16:10:33;100291.00;;;14.90
11424;BMP180;5768;51.476;7.210;2024-02-14T16:15:35;100277.00;;;14.90
11424;BMP180;5768;51.476;7.210;2024-02-14T16:20:38;100281.00;;;14.90
11424;BMP180;5768;51.476;7.210;2024-02-14T16:25:45;100281.00;;;14.80
11424;BMP180;5768;51.476;7.210;2024-02-14T16:30:51;100283.00;;;14.80
11424;BMP180;5768;51.476;7.210;2024-02-14T16:35:58;100288.00;;;14.90
11424;BMP180;5768;51.476;7.210;2024-02-14T16:41:02;100285.00;;;14.90
11424;BMP180;5768;51.476;7.210;2024-02-14T16:46:05;100295.00;;;14.90
11424;BMP180;5768;51.476;7.210;2024-02-14T16:51:07;100288.00;;;14.90
11424;BMP180;5768;51.476;7.210;2024-02-14T16:56:16;100281.00;;;14.90
11424;BMP180;5768;51.476;7.210;2024-02-14T17:01:21;100311.00;;;14.90
11424;BMP180;5768;51.476;7.210;2024-02-14T17:06:24;100286.00;;;14.90
11424;BMP180;5768;51.476;7.210;2024-02-14T17:11:28;100288.00;;;14.90
11424;BMP180;5768;51.476;7.210;2024-02-14T17:16:31;100295.00;;;14.90
11424;BMP180;5768;51.476;7.210;2024-02-14T17:21:33;100306.00;;;15.00
11424;BMP180;5768;51.476;7.210;2024-02-14T17:26:37;100305.00;;;14.80
11424;BMP180;5768;51.476;7.210;2024-02-14T17:31:40;100310.00;;;14.70
11424;BMP180;5768;51.476;7.210;2024-02-14T17:36:43;100313.00;;;14.70
11424;BMP180;5768;51.476;7.210;2024-02-14T17:41:47;100314.00;;;14.60
11424;BMP180;5768;51.476;7.210;2024-02-14T17:46:50;100322.00;;;14.70
11424;BMP180;5768;51.476;7.210;2024-02-14T17:51:52;100325.00;;;14.70
11424;BMP180;5768;51.476;7.210;2024-02-14T17:56:56;100336.00;;;14.70
11424;BMP180;5768;51.476;7.210;2024-02-14T18:02:02;100349.00;;;14.70
11424;BMP180;5768;51.476;7.210;2024-02-14T18:07:04;100344.00;;;14.70
11424;BMP180;5768;51.476;7.210;2024-02-14T18:12:08;100350.00;;;14.80
11424;BMP180;5768;51.476;7.210;2024-02-14T18:17:10;100349.00;;;14.80
11424;BMP180;5768;51.476;7.210;2024-02-14T18:22:13;100348.00;;;14.80
11424;BMP180;5768;51.476;7.210;2024-02-14T18:27:16;100351.00;;;14.80
11424;BMP180;5768;51.476;7.210;2024-02-14T18:32:20;100354.00;;;14.90
11424;BMP180;5768;51.476;7.210;2024-02-14T18:37:24;100369.00;;;14.90
11424;BMP180;5768;51.476;7.210;2024-02-14T18:42:28;100386.00;;;15.00
11424;BMP180;5768;51.476;7.210;2024-02-14T18:47:30;100375.00;;;15.00
11424;BMP180;5768;51.476;7.210;2024-02-14T18:52:33;100382.00;;;14.90
11424;BMP180;5768;51.476;7.210;2024-02-14T18:57:37;100368.00;;;14.80
11424;BMP180;5768;51.476;7.210;2024-02-14T19:02:39;100372.00;;;14.80
11424;BMP180;5768;51.476;7.210;2024-02-14T19:07:43;100384.00;;;14.70
11424;BMP180;5768;51.476;7.210;2024-02-14T19:12:47;100382.00;;;14.70
11424;BMP180;5768;51.476;7.210;2024-02-14T19:17:52;100375.00;;;14.60
11424;BMP180;5768;51.476;7.210;2024-02-14T19:22:55;100377.00;;;14.60
11424;BMP180;5768;51.476;7.210;2024-02-14T19:27:59;100381.00;;;14.60
11424;BMP180;5768;51.476;7.210;2024-02-14T19:33:01;100384.00;;;14.60
11424;BMP180;5768;51.476;7.210;2024-02-14T19:38:03;100385.00;;;14.60
11424;BMP180;5768;51.476;7.210;2024-02-14T19:43:07;100386.00;;;14.70
11424;BMP180;5768;51.476;7.210;2024-02-14T19:48:09;100384.00;;;14.70
11424;BMP180;5768;51.476;7.210;2024-02-14T19:53:11;100380.00;;;14.70
11424;BMP180;5768;51.476;7.210;2024-02-14T19:58:16;100380.00;;;14.70
11424;BMP180;5768;51.476;7.210;2024-02-14T20:03:18;100374.00;;;14.80
11424;BMP180;5768;51.476;7.210;2024-02-14T20:08:20;100383.00;;;14.80
11424;BMP180;5768;51.476;7.210;2024-02-14T20:13:27;100395.00;;;14.90
11424;BMP180;5768;51.476;7.210;2024-02-14T20:18:30;100390.00;;;15.00
11424;BMP180;5768;51.476;7.210;2024-02-14T20:23:32;100392.00;;;15.00
11424;BMP180;5768;51.476;7.210;2024-02-14T20:28:36;100390.00;;;15.00
11424;BMP180;5768;51.476;7.210;2024-02-14T20:33:41;100382.00;;;15.10
11424;BMP180;5768;51.476;7.210;2024-02-14T20:38:43;100388.00;;;15.10
11424;BMP180;5768;51.476;7.210;2024-02-14T20:43:47;100383.00;;;15.10
11424;BMP180;5768;51.476;7.210;2024-02-14T20:48:53;100388.00;;;15.20
11424;BMP180;5768;51.476;7.210;2024-02-14T20:53:55;100390.00;;;15.10
11424;BMP180;5768;51.476;7.210;2024-02-14T20:58:59;100401.00;;;15.20
11424;BMP180;5768;51.476;7.210;2024-02-14T21:04:03;100395.00;;;15.10
11424;BMP180;5768;51.476;7.210;2024-02-14T21:09:06;100392.00;;;15.00
11424;BMP180;5768;51.476;7.210;2024-02-14T21:14:11;100401.00;;;15.10
11424;BMP180;5768;51.476;7.210;2024-02-14T21:19:13;100404.00;;;15.20
11424;BMP180;5768;51.476;7.210;2024-02-14T21:24:15;100405.00;;;15.20
11424;BMP180;5768;51.476;7.210;2024-02-14T21:29:19;100415.00;;;15.20
11424;BMP180;5768;51.476;7.210;2024-02-14T21:34:22;100405.00;;;15.20
11424;BMP180;5768;51.476;7.210;2024-02-14T21:39:24;100402.00;;;15.30
11424;BMP180;5768;51.476;7.210;2024-02-14T21:44:28;100408.00;;;15.30
11424;BMP180;5768;51.476;7.210;2024-02-14T21:49:31;100414.00;;;15.20
11424;BMP180;5768;51.476;7.210;2024-02-14T21:54:34;100412.00;;;15.20
11424;BMP180;5768;51.476;7.210;2024-02-14T21:59:38;100414.00;;;15.30
11424;BMP180;5768;51.476;7.210;2024-02-14T22:04:40;100410.00;;;15.20
11424;BMP180;5768;51.476;7.210;2024-02-14T22:09:42;100400.00;;;15.20
11424;BMP180;5768;51.476;7.210;2024-02-14T22:14:46;100395.00;;;15.30
11424;BMP180;5768;51.476;7.210;2024-02-14T22:19:48;100395.00;;;15.20
11424;BMP180;5768;51.476;7.210;2024-02-14T22:24:50;100398.00;;;15.20
11424;BMP180;5768;51.476;7.210;2024-02-14T22:30:12;100394.00;;;15.20
11424;BMP180;5768;51.476;7.210;2024-02-14T22:35:14;100398.00;;;15.20
11424;BMP180;5768;51.476;7.210;2024-02-14T22:40:17;100393.00;;;15.20
11424;BMP180;5768;51.476;7.210;2024-02-14T22:45:22;100395.00;;;15.10
11424;BMP180;5768;51.476;7.210;2024-02-14T22:50:27;100389.00;;;15.00
11424;BMP180;5768;51.476;7.210;2024-02-14T22:55:29;100384.00;;;15.00
11424;BMP180;5768;51.476;7.210;2024-02-14T23:00:37;100397.00;;;15.10
11424;BMP180;5768;51.476;7.210;2024-02-14T23:05:39;100405.00;;;15.00
11424;BMP180;5768;51.476;7.210;2024-02-14T23:10:42;100397.00;;;14.80
11424;BMP180;5768;51.476;7.210;2024-02-14T23:15:46;100386.00;;;14.70
11424;BMP180;5768;51.476;7.210;2024-02-14T23:20:52;100380.00;;;14.80
11424;BMP180;5768;51.476;7.210;2024-02-14T23:25:54;100381.00;;;14.80
11424;BMP180;5768;51.476;7.210;2024-02-14T23:30:58;100400.00;;;14.80
11424;BMP180;5768;51.476;7.210;2024-02-14T23:36:01;100382.00;;;14.90
11424;BMP180;5768;51.476;7.210;2024-02-14T23:41:03;100393.00;;;15.00
11424;BMP180;5768;51.476;7.210;2024-02-14T23:46:07;100391.00;;;15.00
11424;BMP180;5768;51.476;7.210;2024-02-14T23:51:09;100390.00;;;15.00
11424;BMP180;5768;51.476;7.210;2024-02-14T23:56:11;100399.00;;;15.10
